sensor_id;sensor_type;location;lat;lon;timestamp;P1;durP1;ratioP1;P2;durP2;ratioP2
11533;SDS011;5823;50.588;8.462;2022-07-23T00:01:22;0.90;;;0.70;;
11533;SDS011;5823;50.588;8.462;2022-07-23T00:03:48;0.88;;;0.88;;
11533;SDS011;5823;50.588;8.462;2022-07-23T00:06:15;0.75;;;0.70;;
11533;SDS011;5823;50.588;8.462;2022-07-23T00:08:42;0.73;;;0.73;;
11533;SDS011;5823;50.588;8.462;2022-07-23T00:11:09;0.47;;;0.47;;
11533;SDS011;5823;50.588;8.462;2022-07-23T00:13:36;0.43;;;0.43;;
11533;SDS011;5823;50.588;8.462;2022-07-23T00:16:02;0.70;;;0.70;;
11533;SDS011;5823;50.588;8.462;2022-07-23T00:18:29;0.50;;;0.50;;
11533;SDS011;5823;50.588;8.462;2022-07-23T00:20:55;0.52;;;0.52;;
11533;SDS011;5823;50.588;8.462;2022-07-23T00:23:21;0.60;;;0.60;;
11533;SDS011;5823;50.588;8.462;2022-07-23T00:25:51;0.60;;;0.60;;
11533;SDS011;5823;50.588;8.462;2022-07-23T00:28:18;0.40;;;0.40;;
11533;SDS011;5823;50.588;8.462;2022-07-23T00:30:44;0.40;;;0.40;;
11533;SDS011;5823;50.588;8.462;2022-07-23T00:33:10;0.77;;;0.77;;
11533;SDS011;5823;50.588;8.462;2022-07-23T00:35:38;0.90;;;0.90;;
11533;SDS011;5823;50.588;8.462;2022-07-23T00:38:05;0.80;;;0.80;;
11533;SDS011;5823;50.588;8.462;2022-07-23T00:40:32;0.80;;;0.80;;
11533;SDS011;5823;50.588;8.462;2022-07-23T00:43:00;0.80;;;0.80;;
11533;SDS011;5823;50.588;8.462;2022-07-23T00:45:27;0.85;;;0.85;;
11533;SDS011;5823;50.588;8.462;2022-07-23T00:47:53;0.47;;;0.47;;
11533;SDS011;5823;50.588;8.462;2022-07-23T00:50:19;0.57;;;0.57;;
11533;SDS011;5823;50.588;8.462;2022-07-23T00:52:46;0.70;;;0.70;;
11533;SDS011;5823;50.588;8.462;2022-07-23T00:55:13;0.60;;;0.60;;
11533;SDS011;5823;50.588;8.462;2022-07-23T00:57:39;0.60;;;0.60;;
11533;SDS011;5823;50.588;8.462;2022-07-23T01:00:09;0.32;;;0.32;;
11533;SDS011;5823;50.588;8.462;2022-07-23T01:02:36;0.35;;;0.35;;
11533;SDS011;5823;50.588;8.462;2022-07-23T01:05:02;0.43;;;0.43;;
11533;SDS011;5823;50.588;8.462;2022-07-23T01:07:29;0.70;;;0.70;;
11533;SDS011;5823;50.588;8.462;2022-07-23T01:09:56;0.80;;;0.80;;
11533;SDS011;5823;50.588;8.462;2022-07-23T01:12:23;0.70;;;0.70;;
11533;SDS011;5823;50.588;8.462;2022-07-23T01:14:53;0.80;;;0.80;;
11533;SDS011;5823;50.588;8.462;2022-07-23T01:17:21;0.80;;;0.80;;
11533;SDS011;5823;50.588;8.462;2022-07-23T01:19:48;0.45;;;0.45;;
11533;SDS011;5823;50.588;8.462;2022-07-23T01:22:14;0.30;;;0.30;;
11533;SDS011;5823;50.588;8.462;2022-07-23T01:24:42;0.47;;;0.47;;
11533;SDS011;5823;50.588;8.462;2022-07-23T01:27:09;0.60;;;0.60;;
11533;SDS011;5823;50.588;8.462;2022-07-23T01:29:35;0.40;;;0.40;;
11533;SDS011;5823;50.588;8.462;2022-07-23T01:32:01;0.60;;;0.60;;
11533;SDS011;5823;50.588;8.462;2022-07-23T01:34:27;0.77;;;0.77;;
11533;SDS011;5823;50.588;8.462;2022-07-23T01:36:54;0.60;;;0.60;;
11533;SDS011;5823;50.588;8.462;2022-07-23T01:39:20;1.13;;;1.05;;
11533;SDS011;5823;50.588;8.462;2022-07-23T01:41:48;0.85;;;0.82;;
11533;SDS011;5823;50.588;8.462;2022-07-23T01:44:15;0.90;;;0.90;;
11533;SDS011;5823;50.588;8.462;2022-07-23T01:46:41;0.93;;;0.80;;
11533;SDS011;5823;50.588;8.462;2022-07-23T01:49:08;0.45;;;0.45;;
11533;SDS011;5823;50.588;8.462;2022-07-23T01:51:34;0.40;;;0.40;;
11533;SDS011;5823;50.588;8.462;2022-07-23T01:54:01;0.70;;;0.63;;
11533;SDS011;5823;50.588;8.462;2022-07-23T01:56:27;0.50;;;0.50;;
11533;SDS011;5823;50.588;8.462;2022-07-23T01:58:55;0.75;;;0.70;;
11533;SDS011;5823;50.588;8.462;2022-07-23T02:01:21;0.60;;;0.60;;
11533;SDS011;5823;50.588;8.462;2022-07-23T02:03:47;0.75;;;0.75;;
11533;SDS011;5823;50.588;8.462;2022-07-23T02:06:14;0.65;;;0.65;;
11533;SDS011;5823;50.588;8.462;2022-07-23T02:08:40;1.05;;;0.60;;
11533;SDS011;5823;50.588;8.462;2022-07-23T02:11:06;0.60;;;0.60;;
11533;SDS011;5823;50.588;8.462;2022-07-23T02:13:33;0.38;;;0.38;;
11533;SDS011;5823;50.588;8.462;2022-07-23T02:16:00;0.60;;;0.60;;
11533;SDS011;5823;50.588;8.462;2022-07-23T02:18:27;0.52;;;0.52;;
11533;SDS011;5823;50.588;8.462;2022-07-23T02:20:53;0.50;;;0.50;;
11533;SDS011;5823;50.588;8.462;2022-07-23T02:23:19;0.20;;;0.20;;
11533;SDS011;5823;50.588;8.462;2022-07-23T02:25:46;0.52;;;0.52;;
11533;SDS011;5823;50.588;8.462;2022-07-23T02:28:13;0.50;;;0.50;;
11533;SDS011;5823;50.588;8.462;2022-07-23T02:30:40;0.30;;;0.30;;
11533;SDS011;5823;50.588;8.462;2022-07-23T02:33:07;0.55;;;0.50;;
11533;SDS011;5823;50.588;8.462;2022-07-23T02:35:34;0.50;;;0.50;;
11533;SDS011;5823;50.588;8.462;2022-07-23T02:38:00;0.40;;;0.40;;
11533;SDS011;5823;50.588;8.462;2022-07-23T02:40:26;0.60;;;0.60;;
11533;SDS011;5823;50.588;8.462;2022-07-23T02:42:53;0.50;;;0.50;;
11533;SDS011;5823;50.588;8.462;2022-07-23T02:45:19;0.68;;;0.68;;
11533;SDS011;5823;50.588;8.462;2022-07-23T02:47:46;0.30;;;0.30;;
11533;SDS011;5823;50.588;8.462;2022-07-23T02:50:13;0.50;;;0.50;;
11533;SDS011;5823;50.588;8.462;2022-07-23T02:52:40;0.90;;;0.90;;
11533;SDS011;5823;50.588;8.462;2022-07-23T02:55:07;0.90;;;0.82;;
11533;SDS011;5823;50.588;8.462;2022-07-23T02:57:33;0.70;;;0.68;;
11533;SDS011;5823;50.588;8.462;2022-07-23T02:59:59;0.70;;;0.70;;
11533;SDS011;5823;50.588;8.462;2022-07-23T03:02:26;0.50;;;0.50;;
11533;SDS011;5823;50.588;8.462;2022-07-23T03:04:52;0.50;;;0.50;;
11533;SDS011;5823;50.588;8.462;2022-07-23T03:07:20;0.60;;;0.60;;
11533;SDS011;5823;50.588;8.462;2022-07-23T03:09:46;0.80;;;0.80;;
11533;SDS011;5823;50.588;8.462;2022-07-23T03:12:13;0.63;;;0.63;;
11533;SDS011;5823;50.588;8.462;2022-07-23T03:14:39;0.60;;;0.60;;
11533;SDS011;5823;50.588;8.462;2022-07-23T03:17:06;0.50;;;0.50;;
11533;SDS011;5823;50.588;8.462;2022-07-23T03:19:32;0.90;;;0.90;;
11533;SDS011;5823;50.588;8.462;2022-07-23T03:21:58;0.55;;;0.55;;
11533;SDS011;5823;50.588;8.462;2022-07-23T03:24:26;0.60;;;0.60;;
11533;SDS011;5823;50.588;8.462;2022-07-23T03:27:13;0.50;;;0.50;;
11533;SDS011;5823;50.588;8.462;2022-07-23T03:29:40;0.73;;;0.73;;
11533;SDS011;5823;50.588;8.462;2022-07-23T03:32:06;0.73;;;0.73;;
11533;SDS011;5823;50.588;8.462;2022-07-23T03:34:32;0.55;;;0.55;;
11533;SDS011;5823;50.588;8.462;2022-07-23T03:36:59;0.47;;;0.40;;
11533;SDS011;5823;50.588;8.462;2022-07-23T03:39:27;0.60;;;0.60;;
11533;SDS011;5823;50.588;8.462;2022-07-23T03:41:53;0.70;;;0.70;;
11533;SDS011;5823;50.588;8.462;2022-07-23T03:44:19;0.60;;;0.60;;
11533;SDS011;5823;50.588;8.462;2022-07-23T03:46:46;0.45;;;0.45;;
11533;SDS011;5823;50.588;8.462;2022-07-23T03:49:12;0.80;;;0.80;;
11533;SDS011;5823;50.588;8.462;2022-07-23T03:51:38;0.80;;;0.80;;
11533;SDS011;5823;50.588;8.462;2022-07-23T03:54:05;0.70;;;0.70;;
11533;SDS011;5823;50.588;8.462;2022-07-23T03:56:32;0.60;;;0.60;;
11533;SDS011;5823;50.588;8.462;2022-07-23T03:58:59;0.65;;;0.50;;
11533;SDS011;5823;50.588;8.462;2022-07-23T04:01:25;0.60;;;0.60;;
11533;SDS011;5823;50.588;8.462;2022-07-23T04:03:51;0.60;;;0.60;;
11533;SDS011;5823;50.588;8.462;2022-07-23T04:06:18;0.70;;;0.70;;
11533;SDS011;5823;50.588;8.462;2022-07-23T04:08:44;0.40;;;0.40;;
11533;SDS011;5823;50.588;8.462;2022-07-23T04:11:11;0.50;;;0.50;;
11533;SDS011;5823;50.588;8.462;2022-07-23T04:13:39;0.30;;;0.30;;
11533;SDS011;5823;50.588;8.462;2022-07-23T04:16:05;0.68;;;0.55;;
11533;SDS011;5823;50.588;8.462;2022-07-23T04:18:32;0.35;;;0.35;;
11533;SDS011;5823;50.588;8.462;2022-07-23T04:20:59;0.43;;;0.43;;
11533;SDS011;5823;50.588;8.462;2022-07-23T04:23:25;0.50;;;0.50;;
11533;SDS011;5823;50.588;8.462;2022-07-23T04:25:51;0.30;;;0.30;;
11533;SDS011;5823;50.588;8.462;2022-07-23T04:28:18;0.60;;;0.50;;
11533;SDS011;5823;50.588;8.462;2022-07-23T04:30:45;0.40;;;0.40;;
11533;SDS011;5823;50.588;8.462;2022-07-23T04:33:12;0.47;;;0.47;;
11533;SDS011;5823;50.588;8.462;2022-07-23T04:35:38;0.38;;;0.38;;
11533;SDS011;5823;50.588;8.462;2022-07-23T04:38:04;0.45;;;0.45;;
11533;SDS011;5823;50.588;8.462;2022-07-23T04:40:31;0.70;;;0.70;;
11533;SDS011;5823;50.588;8.462;2022-07-23T04:42:57;0.73;;;0.73;;
11533;SDS011;5823;50.588;8.462;2022-07-23T04:45:23;0.50;;;0.50;;
11533;SDS011;5823;50.588;8.462;2022-07-23T04:47:51;0.68;;;0.68;;
11533;SDS011;5823;50.588;8.462;2022-07-23T04:50:18;0.38;;;0.38;;
11533;SDS011;5823;50.588;8.462;2022-07-23T04:52:46;0.82;;;0.82;;
11533;SDS011;5823;50.588;8.462;2022-07-23T04:55:12;0.60;;;0.60;;
11533;SDS011;5823;50.588;8.462;2022-07-23T04:57:39;0.43;;;0.43;;
11533;SDS011;5823;50.588;8.462;2022-07-23T05:00:06;0.70;;;0.70;;
11533;SDS011;5823;50.588;8.462;2022-07-23T05:02:32;0.60;;;0.60;;
11533;SDS011;5823;50.588;8.462;2022-07-23T05:05:00;0.50;;;0.50;;
11533;SDS011;5823;50.588;8.462;2022-07-23T05:07:26;0.70;;;0.70;;
11533;SDS011;5823;50.588;8.462;2022-07-23T05:09:53;0.60;;;0.60;;
11533;SDS011;5823;50.588;8.462;2022-07-23T05:12:19;0.40;;;0.40;;
11533;SDS011;5823;50.588;8.462;2022-07-23T05:14:45;0.63;;;0.63;;
11533;SDS011;5823;50.588;8.462;2022-07-23T05:17:11;0.47;;;0.47;;
11533;SDS011;5823;50.588;8.462;2022-07-23T05:19:38;0.45;;;0.45;;
11533;SDS011;5823;50.588;8.462;2022-07-23T05:22:05;0.60;;;0.60;;
11533;SDS011;5823;50.588;8.462;2022-07-23T05:24:32;0.40;;;0.40;;
11533;SDS011;5823;50.588;8.462;2022-07-23T05:26:58;0.50;;;0.50;;
11533;SDS011;5823;50.588;8.462;2022-07-23T05:29:24;0.52;;;0.52;;
11533;SDS011;5823;50.588;8.462;2022-07-23T05:31:51;0.68;;;0.68;;
11533;SDS011;5823;50.588;8.462;2022-07-23T05:34:17;0.70;;;0.70;;
11533;SDS011;5823;50.588;8.462;2022-07-23T05:36:44;0.50;;;0.50;;
11533;SDS011;5823;50.588;8.462;2022-07-23T05:39:11;0.73;;;0.73;;
11533;SDS011;5823;50.588;8.462;2022-07-23T05:41:37;0.40;;;0.40;;
11533;SDS011;5823;50.588;8.462;2022-07-23T05:44:04;0.60;;;0.52;;
11533;SDS011;5823;50.588;8.462;2022-07-23T05:46:30;0.52;;;0.52;;
11533;SDS011;5823;50.588;8.462;2022-07-23T05:48:57;0.80;;;0.80;;
11533;SDS011;5823;50.588;8.462;2022-07-23T05:51:24;0.73;;;0.73;;
11533;SDS011;5823;50.588;8.462;2022-07-23T05:53:50;0.77;;;0.77;;
11533;SDS011;5823;50.588;8.462;2022-07-23T05:56:18;0.60;;;0.60;;
11533;SDS011;5823;50.588;8.462;2022-07-23T05:58:45;0.80;;;0.80;;
11533;SDS011;5823;50.588;8.462;2022-07-23T06:01:11;0.70;;;0.70;;
11533;SDS011;5823;50.588;8.462;2022-07-23T06:03:37;0.60;;;0.60;;
11533;SDS011;5823;50.588;8.462;2022-07-23T06:06:04;0.80;;;0.80;;
11533;SDS011;5823;50.588;8.462;2022-07-23T06:08:30;1.40;;;0.90;;
11533;SDS011;5823;50.588;8.462;2022-07-23T06:10:57;0.68;;;0.68;;
11533;SDS011;5823;50.588;8.462;2022-07-23T06:13:25;0.70;;;0.70;;
11533;SDS011;5823;50.588;8.462;2022-07-23T06:15:51;0.90;;;0.90;;
11533;SDS011;5823;50.588;8.462;2022-07-23T06:18:17;0.85;;;0.80;;
11533;SDS011;5823;50.588;8.462;2022-07-23T06:20:44;0.93;;;0.93;;
11533;SDS011;5823;50.588;8.462;2022-07-23T06:23:10;0.88;;;0.88;;
11533;SDS011;5823;50.588;8.462;2022-07-23T06:25:37;0.90;;;0.90;;
11533;SDS011;5823;50.588;8.462;2022-07-23T06:28:03;0.80;;;0.80;;
11533;SDS011;5823;50.588;8.462;2022-07-23T06:30:31;0.90;;;0.90;;
11533;SDS011;5823;50.588;8.462;2022-07-23T06:32:58;0.90;;;0.90;;
11533;SDS011;5823;50.588;8.462;2022-07-23T06:35:24;0.68;;;0.68;;
11533;SDS011;5823;50.588;8.462;2022-07-23T06:37:51;0.90;;;0.90;;
11533;SDS011;5823;50.588;8.462;2022-07-23T06:40:17;0.82;;;0.82;;
11533;SDS011;5823;50.588;8.462;2022-07-23T06:42:44;0.80;;;0.80;;
11533;SDS011;5823;50.588;8.462;2022-07-23T06:45:10;0.40;;;0.40;;
11533;SDS011;5823;50.588;8.462;2022-07-23T06:47:38;0.70;;;0.70;;
11533;SDS011;5823;50.588;8.462;2022-07-23T06:50:05;0.70;;;0.70;;
11533;SDS011;5823;50.588;8.462;2022-07-23T06:52:32;0.60;;;0.60;;
11533;SDS011;5823;50.588;8.462;2022-07-23T06:54:58;0.73;;;0.73;;
11533;SDS011;5823;50.588;8.462;2022-07-23T06:57:25;0.70;;;0.70;;
11533;SDS011;5823;50.588;8.462;2022-07-23T06:59:51;0.90;;;0.90;;
11533;SDS011;5823;50.588;8.462;2022-07-23T07:02:18;0.73;;;0.70;;
11533;SDS011;5823;50.588;8.462;2022-07-23T07:04:45;0.75;;;0.75;;
11533;SDS011;5823;50.588;8.462;2022-07-23T07:07:11;0.70;;;0.70;;
11533;SDS011;5823;50.588;8.462;2022-07-23T07:09:38;1.00;;;1.00;;
11533;SDS011;5823;50.588;8.462;2022-07-23T07:12:05;0.90;;;0.90;;
11533;SDS011;5823;50.588;8.462;2022-07-23T07:14:31;0.80;;;0.80;;
11533;SDS011;5823;50.588;8.462;2022-07-23T07:16:57;0.60;;;0.60;;
11533;SDS011;5823;50.588;8.462;2022-07-23T07:19:24;0.70;;;0.70;;
11533;SDS011;5823;50.588;8.462;2022-07-23T07:21:51;0.80;;;0.80;;
11533;SDS011;5823;50.588;8.462;2022-07-23T07:24:17;0.73;;;0.73;;
11533;SDS011;5823;50.588;8.462;2022-07-23T07:26:44;0.93;;;0.93;;
11533;SDS011;5823;50.588;8.462;2022-07-23T07:29:10;1.38;;;1.27;;
11533;SDS011;5823;50.588;8.462;2022-07-23T07:31:37;0.80;;;0.80;;
11533;SDS011;5823;50.588;8.462;2022-07-23T07:34:03;0.68;;;0.68;;
11533;SDS011;5823;50.588;8.462;2022-07-23T07:36:29;1.00;;;1.00;;
11533;SDS011;5823;50.588;8.462;2022-07-23T07:38:57;0.90;;;0.90;;
11533;SDS011;5823;50.588;8.462;2022-07-23T07:41:24;0.60;;;0.60;;
11533;SDS011;5823;50.588;8.462;2022-07-23T07:43:51;0.50;;;0.50;;
11533;SDS011;5823;50.588;8.462;2022-07-23T07:46:17;0.50;;;0.50;;
11533;SDS011;5823;50.588;8.462;2022-07-23T07:48:43;0.82;;;0.82;;
11533;SDS011;5823;50.588;8.462;2022-07-23T07:51:10;0.85;;;0.77;;
11533;SDS011;5823;50.588;8.462;2022-07-23T07:53:36;0.52;;;0.52;;
11533;SDS011;5823;50.588;8.462;2022-07-23T07:56:04;0.60;;;0.60;;
11533;SDS011;5823;50.588;8.462;2022-07-23T07:58:30;0.63;;;0.63;;
11533;SDS011;5823;50.588;8.462;2022-07-23T08:00:57;0.47;;;0.47;;
11533;SDS011;5823;50.588;8.462;2022-07-23T08:03:23;0.60;;;0.60;;
11533;SDS011;5823;50.588;8.462;2022-07-23T08:05:49;0.75;;;0.75;;
11533;SDS011;5823;50.588;8.462;2022-07-23T08:08:16;0.50;;;0.50;;
11533;SDS011;5823;50.588;8.462;2022-07-23T08:10:42;0.60;;;0.60;;
11533;SDS011;5823;50.588;8.462;2022-07-23T08:13:11;0.60;;;0.60;;
11533;SDS011;5823;50.588;8.462;2022-07-23T08:15:38;0.73;;;0.73;;
11533;SDS011;5823;50.588;8.462;2022-07-23T08:18:04;0.85;;;0.85;;
11533;SDS011;5823;50.588;8.462;2022-07-23T08:20:31;0.73;;;0.73;;
11533;SDS011;5823;50.588;8.462;2022-07-23T08:22:58;0.82;;;0.82;;
11533;SDS011;5823;50.588;8.462;2022-07-23T08:25:26;0.80;;;0.80;;
11533;SDS011;5823;50.588;8.462;2022-07-23T08:27:54;0.80;;;0.80;;
11533;SDS011;5823;50.588;8.462;2022-07-23T08:30:22;0.80;;;0.80;;
11533;SDS011;5823;50.588;8.462;2022-07-23T08:32:52;0.60;;;0.60;;
11533;SDS011;5823;50.588;8.462;2022-07-23T08:35:21;0.90;;;0.90;;
11533;SDS011;5823;50.588;8.462;2022-07-23T08:37:48;1.40;;;0.93;;
11533;SDS011;5823;50.588;8.462;2022-07-23T08:40:14;0.93;;;0.90;;
11533;SDS011;5823;50.588;8.462;2022-07-23T08:42:40;1.00;;;1.00;;
11533;SDS011;5823;50.588;8.462;2022-07-23T08:45:07;2.78;;;1.75;;
11533;SDS011;5823;50.588;8.462;2022-07-23T08:47:35;1.60;;;1.50;;
11533;SDS011;5823;50.588;8.462;2022-07-23T08:50:02;2.38;;;1.60;;
11533;SDS011;5823;50.588;8.462;2022-07-23T08:52:28;1.25;;;1.23;;
11533;SDS011;5823;50.588;8.462;2022-07-23T08:54:56;1.40;;;1.30;;
11533;SDS011;5823;50.588;8.462;2022-07-23T08:57:22;1.35;;;1.25;;
11533;SDS011;5823;50.588;8.462;2022-07-23T08:59:49;1.50;;;1.40;;
11533;SDS011;5823;50.588;8.462;2022-07-23T09:02:15;1.20;;;1.10;;
11533;SDS011;5823;50.588;8.462;2022-07-23T09:04:43;1.20;;;1.10;;
11533;SDS011;5823;50.588;8.462;2022-07-23T09:07:09;0.95;;;0.95;;
11533;SDS011;5823;50.588;8.462;2022-07-23T09:09:35;1.20;;;1.10;;
11533;SDS011;5823;50.588;8.462;2022-07-23T09:12:02;1.77;;;1.67;;
11533;SDS011;5823;50.588;8.462;2022-07-23T09:14:35;1.30;;;1.20;;
11533;SDS011;5823;50.588;8.462;2022-07-23T09:17:07;1.45;;;1.35;;
11533;SDS011;5823;50.588;8.462;2022-07-23T09:19:34;0.93;;;0.93;;
11533;SDS011;5823;50.588;8.462;2022-07-23T09:24:45;1.00;;;1.00;;
11533;SDS011;5823;50.588;8.462;2022-07-23T09:27:44;0.70;;;0.70;;
11533;SDS011;5823;50.588;8.462;2022-07-23T09:30:11;0.95;;;0.95;;
11533;SDS011;5823;50.588;8.462;2022-07-23T09:32:38;0.90;;;0.65;;
11533;SDS011;5823;50.588;8.462;2022-07-23T09:35:04;0.90;;;0.90;;
11533;SDS011;5823;50.588;8.462;2022-07-23T09:37:31;0.80;;;0.80;;
11533;SDS011;5823;50.588;8.462;2022-07-23T09:40:04;1.10;;;1.02;;
11533;SDS011;5823;50.588;8.462;2022-07-23T09:42:30;1.05;;;1.05;;
11533;SDS011;5823;50.588;8.462;2022-07-23T09:44:58;1.00;;;1.00;;
11533;SDS011;5823;50.588;8.462;2022-07-23T09:47:25;0.70;;;0.70;;
11533;SDS011;5823;50.588;8.462;2022-07-23T09:49:58;1.30;;;1.20;;
11533;SDS011;5823;50.588;8.462;2022-07-23T09:52:26;1.20;;;1.10;;
11533;SDS011;5823;50.588;8.462;2022-07-23T09:54:57;0.80;;;0.80;;
11533;SDS011;5823;50.588;8.462;2022-07-23T09:57:25;0.95;;;0.95;;
11533;SDS011;5823;50.588;8.462;2022-07-23T09:59:52;0.98;;;0.98;;
11533;SDS011;5823;50.588;8.462;2022-07-23T10:02:18;0.82;;;0.82;;
11533;SDS011;5823;50.588;8.462;2022-07-23T10:04:45;0.80;;;0.80;;
11533;SDS011;5823;50.588;8.462;2022-07-23T10:07:12;1.23;;;1.13;;
11533;SDS011;5823;50.588;8.462;2022-07-23T10:09:40;1.30;;;1.20;;
11533;SDS011;5823;50.588;8.462;2022-07-23T10:12:09;1.40;;;1.30;;
11533;SDS011;5823;50.588;8.462;2022-07-23T10:14:57;1.40;;;1.30;;
11533;SDS011;5823;50.588;8.462;2022-07-23T10:17:24;1.20;;;1.10;;
11533;SDS011;5823;50.588;8.462;2022-07-23T10:19:51;1.38;;;1.27;;
11533;SDS011;5823;50.588;8.462;2022-07-23T10:22:18;1.50;;;1.40;;
11533;SDS011;5823;50.588;8.462;2022-07-23T10:24:47;0.90;;;0.90;;
11533;SDS011;5823;50.588;8.462;2022-07-23T10:27:23;1.25;;;1.20;;
11533;SDS011;5823;50.588;8.462;2022-07-23T10:30:00;1.20;;;1.10;;
11533;SDS011;5823;50.588;8.462;2022-07-23T10:32:30;1.60;;;1.50;;
11533;SDS011;5823;50.588;8.462;2022-07-23T10:35:03;1.70;;;1.60;;
11533;SDS011;5823;50.588;8.462;2022-07-23T10:37:35;1.90;;;1.77;;
11533;SDS011;5823;50.588;8.462;2022-07-23T10:40:09;1.40;;;1.30;;
11533;SDS011;5823;50.588;8.462;2022-07-23T10:42:36;1.42;;;1.33;;
11533;SDS011;5823;50.588;8.462;2022-07-23T10:45:09;1.30;;;1.20;;
11533;SDS011;5823;50.588;8.462;2022-07-23T10:47:48;1.30;;;1.20;;
11533;SDS011;5823;50.588;8.462;2022-07-23T10:50:20;1.20;;;1.10;;
11533;SDS011;5823;50.588;8.462;2022-07-23T10:55:39;0.63;;;0.63;;
11533;SDS011;5823;50.588;8.462;2022-07-23T10:58:05;1.15;;;1.10;;
11533;SDS011;5823;50.588;8.462;2022-07-23T11:00:33;1.30;;;1.20;;
11533;SDS011;5823;50.588;8.462;2022-07-23T11:03:00;1.40;;;1.27;;
11533;SDS011;5823;50.588;8.462;2022-07-23T11:05:39;1.70;;;1.60;;
11533;SDS011;5823;50.588;8.462;2022-07-23T11:10:51;1.13;;;1.10;;
11533;SDS011;5823;50.588;8.462;2022-07-23T11:13:27;1.13;;;1.10;;
11533;SDS011;5823;50.588;8.462;2022-07-23T11:16:13;1.60;;;1.50;;
11533;SDS011;5823;50.588;8.462;2022-07-23T11:18:59;1.40;;;1.30;;
11533;SDS011;5823;50.588;8.462;2022-07-23T11:24:22;2.08;;;1.88;;
11533;SDS011;5823;50.588;8.462;2022-07-23T11:27:02;1.75;;;1.65;;
11533;SDS011;5823;50.588;8.462;2022-07-23T11:29:41;1.80;;;1.70;;
11533;SDS011;5823;50.588;8.462;2022-07-23T11:32:18;1.65;;;1.55;;
11533;SDS011;5823;50.588;8.462;2022-07-23T11:34:45;1.15;;;1.15;;
11533;SDS011;5823;50.588;8.462;2022-07-23T11:37:12;0.88;;;0.88;;
11533;SDS011;5823;50.588;8.462;2022-07-23T11:39:53;1.05;;;0.95;;
11533;SDS011;5823;50.588;8.462;2022-07-23T11:42:20;0.80;;;0.80;;
11533;SDS011;5823;50.588;8.462;2022-07-23T11:44:48;0.85;;;0.85;;
11533;SDS011;5823;50.588;8.462;2022-07-23T11:47:20;1.20;;;1.10;;
11533;SDS011;5823;50.588;8.462;2022-07-23T11:49:51;1.00;;;1.00;;
11533;SDS011;5823;50.588;8.462;2022-07-23T11:52:17;0.70;;;0.70;;
11533;SDS011;5823;50.588;8.462;2022-07-23T11:54:46;0.65;;;0.65;;
11533;SDS011;5823;50.588;8.462;2022-07-23T11:57:13;0.80;;;0.80;;
11533;SDS011;5823;50.588;8.462;2022-07-23T11:59:39;0.68;;;0.68;;
11533;SDS011;5823;50.588;8.462;2022-07-23T12:02:06;0.50;;;0.50;;
11533;SDS011;5823;50.588;8.462;2022-07-23T12:04:40;1.00;;;1.00;;
11533;SDS011;5823;50.588;8.462;2022-07-23T12:07:21;0.73;;;0.73;;
11533;SDS011;5823;50.588;8.462;2022-07-23T12:09:48;0.75;;;0.75;;
11533;SDS011;5823;50.588;8.462;2022-07-23T12:12:14;0.70;;;0.70;;
11533;SDS011;5823;50.588;8.462;2022-07-23T12:14:46;0.57;;;0.57;;
11533;SDS011;5823;50.588;8.462;2022-07-23T12:17:13;0.80;;;0.80;;
11533;SDS011;5823;50.588;8.462;2022-07-23T12:19:40;0.82;;;0.82;;
11533;SDS011;5823;50.588;8.462;2022-07-23T12:22:07;0.95;;;0.80;;
11533;SDS011;5823;50.588;8.462;2022-07-23T12:27:15;1.42;;;1.30;;
11533;SDS011;5823;50.588;8.462;2022-07-23T12:29:41;0.90;;;0.90;;
11533;SDS011;5823;50.588;8.462;2022-07-23T12:32:16;1.00;;;1.00;;
11533;SDS011;5823;50.588;8.462;2022-07-23T12:34:44;0.70;;;0.70;;
11533;SDS011;5823;50.588;8.462;2022-07-23T12:37:24;0.70;;;0.70;;
11533;SDS011;5823;50.588;8.462;2022-07-23T12:39:51;0.73;;;0.73;;
11533;SDS011;5823;50.588;8.462;2022-07-23T12:42:18;0.82;;;0.82;;
11533;SDS011;5823;50.588;8.462;2022-07-23T12:47:26;1.20;;;1.10;;
11533;SDS011;5823;50.588;8.462;2022-07-23T12:49:53;1.00;;;1.00;;
11533;SDS011;5823;50.588;8.462;2022-07-23T12:52:19;1.20;;;1.10;;
11533;SDS011;5823;50.588;8.462;2022-07-23T12:54:46;1.15;;;1.05;;
11533;SDS011;5823;50.588;8.462;2022-07-23T12:57:12;0.80;;;0.80;;
11533;SDS011;5823;50.588;8.462;2022-07-23T12:59:38;0.88;;;0.88;;
11533;SDS011;5823;50.588;8.462;2022-07-23T13:02:07;1.10;;;1.00;;
11533;SDS011;5823;50.588;8.462;2022-07-23T13:04:34;1.60;;;1.50;;
11533;SDS011;5823;50.588;8.462;2022-07-23T13:07:02;1.00;;;1.00;;
11533;SDS011;5823;50.588;8.462;2022-07-23T13:09:29;1.40;;;1.30;;
11533;SDS011;5823;50.588;8.462;2022-07-23T13:11:56;1.00;;;1.00;;
11533;SDS011;5823;50.588;8.462;2022-07-23T13:14:25;0.90;;;0.90;;
11533;SDS011;5823;50.588;8.462;2022-07-23T13:16:52;1.00;;;1.00;;
11533;SDS011;5823;50.588;8.462;2022-07-23T13:19:18;1.15;;;1.05;;
11533;SDS011;5823;50.588;8.462;2022-07-23T13:21:47;1.30;;;1.20;;
11533;SDS011;5823;50.588;8.462;2022-07-23T13:24:15;1.20;;;1.10;;
11533;SDS011;5823;50.588;8.462;2022-07-23T13:26:42;1.40;;;1.30;;
11533;SDS011;5823;50.588;8.462;2022-07-23T13:29:08;1.10;;;1.10;;
11533;SDS011;5823;50.588;8.462;2022-07-23T13:31:35;1.15;;;1.10;;
11533;SDS011;5823;50.588;8.462;2022-07-23T13:34:02;1.52;;;1.20;;
11533;SDS011;5823;50.588;8.462;2022-07-23T13:36:28;1.20;;;1.10;;
11533;SDS011;5823;50.588;8.462;2022-07-23T13:38:54;1.10;;;1.10;;
11533;SDS011;5823;50.588;8.462;2022-07-23T13:41:22;0.90;;;0.90;;
11533;SDS011;5823;50.588;8.462;2022-07-23T13:43:49;0.77;;;0.77;;
11533;SDS011;5823;50.588;8.462;2022-07-23T13:46:15;1.02;;;1.02;;
11533;SDS011;5823;50.588;8.462;2022-07-23T13:48:41;0.95;;;0.95;;
11533;SDS011;5823;50.588;8.462;2022-07-23T13:51:08;0.80;;;0.80;;
11533;SDS011;5823;50.588;8.462;2022-07-23T13:53:34;0.85;;;0.85;;
11533;SDS011;5823;50.588;8.462;2022-07-23T13:56:00;1.40;;;1.30;;
11533;SDS011;5823;50.588;8.462;2022-07-23T13:58:28;1.30;;;1.20;;
11533;SDS011;5823;50.588;8.462;2022-07-23T14:00:54;1.00;;;1.00;;
11533;SDS011;5823;50.588;8.462;2022-07-23T14:03:21;1.60;;;1.50;;
11533;SDS011;5823;50.588;8.462;2022-07-23T14:05:48;1.50;;;1.40;;
11533;SDS011;5823;50.588;8.462;2022-07-23T14:08:15;1.20;;;1.10;;
11533;SDS011;5823;50.588;8.462;2022-07-23T14:10:41;1.33;;;1.23;;
11533;SDS011;5823;50.588;8.462;2022-07-23T14:13:08;0.88;;;0.88;;
11533;SDS011;5823;50.588;8.462;2022-07-23T14:15:35;1.20;;;1.10;;
11533;SDS011;5823;50.588;8.462;2022-07-23T14:18:05;0.80;;;0.80;;
11533;SDS011;5823;50.588;8.462;2022-07-23T14:20:32;0.80;;;0.80;;
11533;SDS011;5823;50.588;8.462;2022-07-23T14:22:58;1.52;;;1.42;;
11533;SDS011;5823;50.588;8.462;2022-07-23T14:25:25;1.38;;;1.20;;
11533;SDS011;5823;50.588;8.462;2022-07-23T14:27:52;1.25;;;1.15;;
11533;SDS011;5823;50.588;8.462;2022-07-23T14:30:19;1.20;;;1.10;;
11533;SDS011;5823;50.588;8.462;2022-07-23T14:32:46;0.90;;;0.90;;
11533;SDS011;5823;50.588;8.462;2022-07-23T14:35:13;1.10;;;1.10;;
11533;SDS011;5823;50.588;8.462;2022-07-23T14:37:39;0.93;;;0.93;;
11533;SDS011;5823;50.588;8.462;2022-07-23T14:40:06;1.33;;;1.10;;
11533;SDS011;5823;50.588;8.462;2022-07-23T14:42:32;1.30;;;1.20;;
11533;SDS011;5823;50.588;8.462;2022-07-23T14:44:58;1.23;;;1.13;;
11533;SDS011;5823;50.588;8.462;2022-07-23T14:47:25;1.23;;;1.13;;
11533;SDS011;5823;50.588;8.462;2022-07-23T14:49:53;0.90;;;0.90;;
11533;SDS011;5823;50.588;8.462;2022-07-23T14:52:19;1.10;;;1.10;;
11533;SDS011;5823;50.588;8.462;2022-07-23T14:54:45;1.00;;;1.00;;
11533;SDS011;5823;50.588;8.462;2022-07-23T14:57:12;1.00;;;1.00;;
11533;SDS011;5823;50.588;8.462;2022-07-23T14:59:48;0.82;;;0.82;;
11533;SDS011;5823;50.588;8.462;2022-07-23T15:02:22;1.10;;;1.00;;
11533;SDS011;5823;50.588;8.462;2022-07-23T15:04:49;1.00;;;1.00;;
11533;SDS011;5823;50.588;8.462;2022-07-23T15:07:16;0.77;;;0.77;;
11533;SDS011;5823;50.588;8.462;2022-07-23T15:09:43;0.95;;;0.95;;
11533;SDS011;5823;50.588;8.462;2022-07-23T15:12:09;0.88;;;0.88;;
11533;SDS011;5823;50.588;8.462;2022-07-23T15:14:35;1.10;;;1.00;;
11533;SDS011;5823;50.588;8.462;2022-07-23T15:17:02;1.13;;;1.10;;
11533;SDS011;5823;50.588;8.462;2022-07-23T15:19:28;1.25;;;1.20;;